sensor_id;sensor_type;location;lat;lon;timestamp;P1;durP1;ratioP1;P2;durP2;ratioP2
3257;SDS011;1641;51.306;12.384;2022-08-01T00:02:10;9.38;;;7.25;;
3257;SDS011;1641;51.306;12.384;2022-08-01T00:04:35;8.93;;;7.37;;
3257;SDS011;1641;51.306;12.384;2022-08-01T00:07:00;7.23;;;5.30;;
3257;SDS011;1641;51.306;12.384;2022-08-01T00:09:25;10.05;;;8.02;;
3257;SDS011;1641;51.306;12.384;2022-08-01T00:11:51;13.98;;;12.02;;
3257;SDS011;1641;51.306;12.384;2022-08-01T00:14:16;5.30;;;3.90;;
3257;SDS011;1641;51.306;12.384;2022-08-01T00:16:41;5.63;;;3.60;;
3257;SDS011;1641;51.306;12.384;2022-08-01T00:19:06;9.70;;;6.47;;
3257;SDS011;1641;51.306;12.384;2022-08-01T00:21:32;8.20;;;6.60;;
3257;SDS011;1641;51.306;12.384;2022-08-01T00:23:57;11.13;;;8.73;;
3257;SDS011;1641;51.306;12.384;2022-08-01T00:26:22;6.43;;;5.53;;
3257;SDS011;1641;51.306;12.384;2022-08-01T00:28:47;10.63;;;8.00;;
3257;SDS011;1641;51.306;12.384;2022-08-01T00:31:13;6.15;;;4.30;;
3257;SDS011;1641;51.306;12.384;2022-08-01T00:33:38;5.72;;;5.18;;
3257;SDS011;1641;51.306;12.384;2022-08-01T00:36:03;8.23;;;4.97;;
3257;SDS011;1641;51.306;12.384;2022-08-01T00:38:28;4.15;;;3.75;;
3257;SDS011;1641;51.306;12.384;2022-08-01T00:40:54;11.88;;;8.40;;
3257;SDS011;1641;51.306;12.384;2022-08-01T00:43:19;30.52;;;18.55;;
3257;SDS011;1641;51.306;12.384;2022-08-01T00:45:44;6.95;;;5.60;;
3257;SDS011;1641;51.306;12.384;2022-08-01T00:48:10;5.50;;;3.67;;
3257;SDS011;1641;51.306;12.384;2022-08-01T00:50:36;11.25;;;8.88;;
3257;SDS011;1641;51.306;12.384;2022-08-01T00:53:01;7.68;;;4.90;;
3257;SDS011;1641;51.306;12.384;2022-08-01T00:55:27;8.57;;;6.85;;
3257;SDS011;1641;51.306;12.384;2022-08-01T00:57:53;26.52;;;15.10;;
3257;SDS011;1641;51.306;12.384;2022-08-01T01:00:19;5.32;;;4.10;;
3257;SDS011;1641;51.306;12.384;2022-08-01T01:02:44;6.50;;;5.10;;
3257;SDS011;1641;51.306;12.384;2022-08-01T01:05:10;10.48;;;8.25;;
3257;SDS011;1641;51.306;12.384;2022-08-01T01:07:39;11.18;;;7.95;;
3257;SDS011;1641;51.306;12.384;2022-08-01T01:10:17;10.90;;;4.88;;
3257;SDS011;1641;51.306;12.384;2022-08-01T01:13:11;15.20;;;9.88;;
3257;SDS011;1641;51.306;12.384;2022-08-01T01:15:47;7.15;;;6.43;;
3257;SDS011;1641;51.306;12.384;2022-08-01T01:18:27;5.78;;;4.47;;
3257;SDS011;1641;51.306;12.384;2022-08-01T01:21:07;9.82;;;5.03;;
3257;SDS011;1641;51.306;12.384;2022-08-01T01:23:49;7.25;;;3.83;;
3257;SDS011;1641;51.306;12.384;2022-08-01T01:31:33;4.60;;;4.15;;
3257;SDS011;1641;51.306;12.384;2022-08-01T01:34:05;6.50;;;4.15;;
3257;SDS011;1641;51.306;12.384;2022-08-01T01:36:34;8.93;;;7.00;;
3257;SDS011;1641;51.306;12.384;2022-08-01T01:39:00;6.25;;;4.80;;
3257;SDS011;1641;51.306;12.384;2022-08-01T01:41:26;6.03;;;5.40;;
3257;SDS011;1641;51.306;12.384;2022-08-01T01:43:53;9.02;;;4.25;;
3257;SDS011;1641;51.306;12.384;2022-08-01T01:46:20;8.70;;;5.43;;
3257;SDS011;1641;51.306;12.384;2022-08-01T01:48:53;5.45;;;4.10;;
3257;SDS011;1641;51.306;12.384;2022-08-01T01:51:20;5.97;;;4.32;;
3257;SDS011;1641;51.306;12.384;2022-08-01T01:53:48;7.65;;;6.07;;
3257;SDS011;1641;51.306;12.384;2022-08-01T01:56:16;7.53;;;5.13;;
3257;SDS011;1641;51.306;12.384;2022-08-01T01:58:43;8.55;;;5.18;;
3257;SDS011;1641;51.306;12.384;2022-08-01T02:01:09;6.93;;;5.30;;
3257;SDS011;1641;51.306;12.384;2022-08-01T02:03:36;5.75;;;4.25;;
3257;SDS011;1641;51.306;12.384;2022-08-01T02:06:03;5.53;;;4.22;;
3257;SDS011;1641;51.306;12.384;2022-08-01T02:08:29;5.38;;;4.38;;
3257;SDS011;1641;51.306;12.384;2022-08-01T02:10:57;5.25;;;4.07;;
3257;SDS011;1641;51.306;12.384;2022-08-01T02:13:43;6.05;;;3.90;;
3257;SDS011;1641;51.306;12.384;2022-08-01T02:16:09;9.38;;;5.80;;
3257;SDS011;1641;51.306;12.384;2022-08-01T02:18:36;5.05;;;4.55;;
3257;SDS011;1641;51.306;12.384;2022-08-01T02:21:02;5.47;;;4.05;;
3257;SDS011;1641;51.306;12.384;2022-08-01T02:23:31;5.35;;;4.53;;
3257;SDS011;1641;51.306;12.384;2022-08-01T02:25:58;8.85;;;5.28;;
3257;SDS011;1641;51.306;12.384;2022-08-01T02:28:34;5.68;;;4.10;;
3257;SDS011;1641;51.306;12.384;2022-08-01T02:31:07;6.53;;;4.10;;
3257;SDS011;1641;51.306;12.384;2022-08-01T02:33:38;5.30;;;4.07;;
3257;SDS011;1641;51.306;12.384;2022-08-01T02:36:06;4.75;;;4.30;;
3257;SDS011;1641;51.306;12.384;2022-08-01T02:38:36;15.35;;;4.30;;
3257;SDS011;1641;51.306;12.384;2022-08-01T02:41:07;4.38;;;3.97;;
3257;SDS011;1641;51.306;12.384;2022-08-01T02:43:34;3.72;;;3.40;;
3257;SDS011;1641;51.306;12.384;2022-08-01T02:46:03;4.72;;;4.28;;
3257;SDS011;1641;51.306;12.384;2022-08-01T02:48:30;4.63;;;3.53;;
3257;SDS011;1641;51.306;12.384;2022-08-01T02:50:59;8.35;;;4.95;;
3257;SDS011;1641;51.306;12.384;2022-08-01T02:53:31;7.18;;;3.75;;
3257;SDS011;1641;51.306;12.384;2022-08-01T02:56:02;4.95;;;4.45;;
3257;SDS011;1641;51.306;12.384;2022-08-01T02:58:29;5.50;;;3.83;;
3257;SDS011;1641;51.306;12.384;2022-08-01T03:00:55;4.47;;;3.42;;
3257;SDS011;1641;51.306;12.384;2022-08-01T03:03:21;5.03;;;4.40;;
3257;SDS011;1641;51.306;12.384;2022-08-01T03:05:48;4.43;;;4.03;;
3257;SDS011;1641;51.306;12.384;2022-08-01T03:08:14;6.30;;;3.30;;
3257;SDS011;1641;51.306;12.384;2022-08-01T03:10:42;4.50;;;3.70;;
3257;SDS011;1641;51.306;12.384;2022-08-01T03:13:09;5.50;;;3.88;;
3257;SDS011;1641;51.306;12.384;2022-08-01T03:15:36;6.03;;;3.63;;
3257;SDS011;1641;51.306;12.384;2022-08-01T03:18:04;3.80;;;3.45;;
3257;SDS011;1641;51.306;12.384;2022-08-01T03:20:31;4.40;;;3.70;;
3257;SDS011;1641;51.306;12.384;2022-08-01T03:22:59;4.63;;;3.72;;
3257;SDS011;1641;51.306;12.384;2022-08-01T03:25:26;5.20;;;3.58;;
3257;SDS011;1641;51.306;12.384;2022-08-01T03:27:54;5.93;;;3.80;;
3257;SDS011;1641;51.306;12.384;2022-08-01T03:30:23;7.75;;;3.58;;
3257;SDS011;1641;51.306;12.384;2022-08-01T03:32:49;4.38;;;3.85;;
3257;SDS011;1641;51.306;12.384;2022-08-01T03:35:15;3.78;;;3.47;;
3257;SDS011;1641;51.306;12.384;2022-08-01T03:37:42;4.95;;;3.53;;
3257;SDS011;1641;51.306;12.384;2022-08-01T03:40:14;4.03;;;2.90;;
3257;SDS011;1641;51.306;12.384;2022-08-01T03:42:54;5.63;;;3.10;;
3257;SDS011;1641;51.306;12.384;2022-08-01T03:45:29;3.40;;;2.92;;
3257;SDS011;1641;51.306;12.384;2022-08-01T03:48:00;8.05;;;3.72;;
3257;SDS011;1641;51.306;12.384;2022-08-01T03:50:30;3.60;;;2.72;;
3257;SDS011;1641;51.306;12.384;2022-08-01T03:52:58;3.88;;;2.80;;
3257;SDS011;1641;51.306;12.384;2022-08-01T03:55:26;3.08;;;2.70;;
3257;SDS011;1641;51.306;12.384;2022-08-01T03:57:53;4.78;;;3.08;;
3257;SDS011;1641;51.306;12.384;2022-08-01T04:00:19;5.00;;;2.92;;
3257;SDS011;1641;51.306;12.384;2022-08-01T04:02:46;3.13;;;2.83;;
3257;SDS011;1641;51.306;12.384;2022-08-01T04:05:13;3.55;;;2.78;;
3257;SDS011;1641;51.306;12.384;2022-08-01T04:07:39;3.30;;;3.03;;
3257;SDS011;1641;51.306;12.384;2022-08-01T04:10:07;3.50;;;2.97;;
3257;SDS011;1641;51.306;12.384;2022-08-01T04:12:33;3.22;;;3.00;;
3257;SDS011;1641;51.306;12.384;2022-08-01T04:14:59;3.47;;;3.17;;
3257;SDS011;1641;51.306;12.384;2022-08-01T04:17:24;4.30;;;3.15;;
3257;SDS011;1641;51.306;12.384;2022-08-01T04:19:49;3.30;;;3.00;;
3257;SDS011;1641;51.306;12.384;2022-08-01T04:22:15;3.40;;;2.88;;
3257;SDS011;1641;51.306;12.384;2022-08-01T04:24:41;5.22;;;3.45;;
3257;SDS011;1641;51.306;12.384;2022-08-01T04:27:11;5.00;;;3.63;;
3257;SDS011;1641;51.306;12.384;2022-08-01T04:29:42;4.53;;;3.40;;
3257;SDS011;1641;51.306;12.384;2022-08-01T04:32:08;7.35;;;3.15;;
3257;SDS011;1641;51.306;12.384;2022-08-01T04:34:37;4.05;;;3.63;;
3257;SDS011;1641;51.306;12.384;2022-08-01T04:37:04;2.92;;;2.72;;
3257;SDS011;1641;51.306;12.384;2022-08-01T04:39:32;3.13;;;2.83;;
3257;SDS011;1641;51.306;12.384;2022-08-01T04:42:01;4.22;;;2.90;;
3257;SDS011;1641;51.306;12.384;2022-08-01T04:44:29;4.65;;;3.28;;
3257;SDS011;1641;51.306;12.384;2022-08-01T04:46:57;3.45;;;3.05;;
3257;SDS011;1641;51.306;12.384;2022-08-01T04:49:24;3.65;;;3.30;;
3257;SDS011;1641;51.306;12.384;2022-08-01T04:51:50;3.38;;;3.08;;
3257;SDS011;1641;51.306;12.384;2022-08-01T04:54:17;3.53;;;2.92;;
3257;SDS011;1641;51.306;12.384;2022-08-01T04:56:42;3.67;;;2.92;;
3257;SDS011;1641;51.306;12.384;2022-08-01T04:59:08;6.18;;;3.13;;
3257;SDS011;1641;51.306;12.384;2022-08-01T05:01:52;3.65;;;3.15;;
3257;SDS011;1641;51.306;12.384;2022-08-01T05:04:17;4.78;;;3.05;;
3257;SDS011;1641;51.306;12.384;2022-08-01T05:06:43;4.03;;;2.90;;
3257;SDS011;1641;51.306;12.384;2022-08-01T05:09:08;3.65;;;3.35;;
3257;SDS011;1641;51.306;12.384;2022-08-01T05:11:34;3.43;;;3.13;;
3257;SDS011;1641;51.306;12.384;2022-08-01T05:13:59;3.10;;;2.70;;
3257;SDS011;1641;51.306;12.384;2022-08-01T05:16:25;3.03;;;2.83;;
3257;SDS011;1641;51.306;12.384;2022-08-01T05:18:51;3.10;;;2.53;;
3257;SDS011;1641;51.306;12.384;2022-08-01T05:21:17;3.47;;;2.78;;
3257;SDS011;1641;51.306;12.384;2022-08-01T05:23:42;3.47;;;2.60;;
3257;SDS011;1641;51.306;12.384;2022-08-01T05:26:07;3.08;;;2.67;;
3257;SDS011;1641;51.306;12.384;2022-08-01T05:28:32;5.75;;;2.80;;
3257;SDS011;1641;51.306;12.384;2022-08-01T05:30:58;3.42;;;3.05;;
3257;SDS011;1641;51.306;12.384;2022-08-01T05:33:23;4.45;;;2.75;;
3257;SDS011;1641;51.306;12.384;2022-08-01T05:35:48;3.50;;;3.20;;
3257;SDS011;1641;51.306;12.384;2022-08-01T05:38:14;2.75;;;2.50;;
3257;SDS011;1641;51.306;12.384;2022-08-01T05:40:39;3.72;;;3.33;;
3257;SDS011;1641;51.306;12.384;2022-08-01T05:43:04;3.47;;;3.13;;
3257;SDS011;1641;51.306;12.384;2022-08-01T05:45:32;6.13;;;3.58;;
3257;SDS011;1641;51.306;12.384;2022-08-01T05:47:57;4.13;;;3.58;;
3257;SDS011;1641;51.306;12.384;2022-08-01T05:50:22;4.77;;;3.57;;
3257;SDS011;1641;51.306;12.384;2022-08-01T05:52:47;3.53;;;3.23;;
3257;SDS011;1641;51.306;12.384;2022-08-01T05:55:12;13.57;;;8.27;;
3257;SDS011;1641;51.306;12.384;2022-08-01T05:57:38;22.25;;;11.48;;
3257;SDS011;1641;51.306;12.384;2022-08-01T06:00:03;11.90;;;7.40;;
3257;SDS011;1641;51.306;12.384;2022-08-01T06:02:29;9.30;;;6.55;;
3257;SDS011;1641;51.306;12.384;2022-08-01T06:04:54;25.67;;;14.23;;
3257;SDS011;1641;51.306;12.384;2022-08-01T06:07:20;8.10;;;5.95;;
3257;SDS011;1641;51.306;12.384;2022-08-01T06:09:45;14.17;;;9.20;;
3257;SDS011;1641;51.306;12.384;2022-08-01T06:12:10;14.17;;;8.43;;
3257;SDS011;1641;51.306;12.384;2022-08-01T06:14:35;3.77;;;3.00;;
3257;SDS011;1641;51.306;12.384;2022-08-01T06:17:01;7.13;;;4.72;;
3257;SDS011;1641;51.306;12.384;2022-08-01T06:19:26;2.90;;;2.50;;
3257;SDS011;1641;51.306;12.384;2022-08-01T06:21:51;11.52;;;6.53;;
3257;SDS011;1641;51.306;12.384;2022-08-01T06:24:16;6.93;;;4.25;;
3257;SDS011;1641;51.306;12.384;2022-08-01T06:26:42;5.15;;;3.35;;
3257;SDS011;1641;51.306;12.384;2022-08-01T06:29:07;7.95;;;5.65;;
3257;SDS011;1641;51.306;12.384;2022-08-01T06:31:32;2.30;;;1.98;;
3257;SDS011;1641;51.306;12.384;2022-08-01T06:33:58;3.33;;;2.63;;
3257;SDS011;1641;51.306;12.384;2022-08-01T06:36:23;3.97;;;3.03;;
3257;SDS011;1641;51.306;12.384;2022-08-01T06:38:48;3.42;;;2.70;;
3257;SDS011;1641;51.306;12.384;2022-08-01T06:41:13;6.53;;;4.47;;
3257;SDS011;1641;51.306;12.384;2022-08-01T06:43:39;14.70;;;6.18;;
3257;SDS011;1641;51.306;12.384;2022-08-01T06:46:04;2.83;;;2.50;;
3257;SDS011;1641;51.306;12.384;2022-08-01T06:48:29;13.38;;;8.05;;
3257;SDS011;1641;51.306;12.384;2022-08-01T06:50:54;5.95;;;3.38;;
3257;SDS011;1641;51.306;12.384;2022-08-01T06:53:32;2.17;;;2.00;;
3257;SDS011;1641;51.306;12.384;2022-08-01T06:55:59;1.90;;;1.77;;
3257;SDS011;1641;51.306;12.384;2022-08-01T06:58:24;3.10;;;2.57;;
3257;SDS011;1641;51.306;12.384;2022-08-01T07:00:49;4.57;;;2.43;;
3257;SDS011;1641;51.306;12.384;2022-08-01T07:03:14;1.50;;;1.20;;
3257;SDS011;1641;51.306;12.384;2022-08-01T07:05:39;2.53;;;1.77;;
3257;SDS011;1641;51.306;12.384;2022-08-01T07:08:05;7.72;;;4.80;;
3257;SDS011;1641;51.306;12.384;2022-08-01T07:10:30;3.58;;;2.80;;
3257;SDS011;1641;51.306;12.384;2022-08-01T07:12:55;4.40;;;3.33;;
3257;SDS011;1641;51.306;12.384;2022-08-01T07:15:21;3.65;;;1.30;;
3257;SDS011;1641;51.306;12.384;2022-08-01T07:17:51;2.30;;;1.55;;
3257;SDS011;1641;51.306;12.384;2022-08-01T07:20:17;3.50;;;1.38;;
3257;SDS011;1641;51.306;12.384;2022-08-01T07:22:44;2.78;;;1.73;;
3257;SDS011;1641;51.306;12.384;2022-08-01T07:25:09;1.77;;;1.42;;
3257;SDS011;1641;51.306;12.384;2022-08-01T07:27:35;2.90;;;1.50;;
3257;SDS011;1641;51.306;12.384;2022-08-01T07:30:00;2.72;;;1.38;;
3257;SDS011;1641;51.306;12.384;2022-08-01T07:32:26;1.25;;;1.15;;
3257;SDS011;1641;51.306;12.384;2022-08-01T07:34:51;1.52;;;1.42;;
3257;SDS011;1641;51.306;12.384;2022-08-01T07:37:16;1.63;;;1.30;;
3257;SDS011;1641;51.306;12.384;2022-08-01T07:39:42;3.58;;;1.52;;
3257;SDS011;1641;51.306;12.384;2022-08-01T07:42:07;4.35;;;2.47;;
3257;SDS011;1641;51.306;12.384;2022-08-01T07:44:32;1.35;;;1.25;;
3257;SDS011;1641;51.306;12.384;2022-08-01T07:46:58;3.22;;;1.27;;
3257;SDS011;1641;51.306;12.384;2022-08-01T07:49:23;2.15;;;1.65;;
3257;SDS011;1641;51.306;12.384;2022-08-01T07:51:48;7.13;;;4.63;;
3257;SDS011;1641;51.306;12.384;2022-08-01T07:54:14;3.47;;;2.53;;
3257;SDS011;1641;51.306;12.384;2022-08-01T07:56:39;12.23;;;6.57;;
3257;SDS011;1641;51.306;12.384;2022-08-01T07:59:04;4.85;;;1.80;;
3257;SDS011;1641;51.306;12.384;2022-08-01T08:01:30;11.57;;;2.97;;
3257;SDS011;1641;51.306;12.384;2022-08-01T08:03:55;2.85;;;1.95;;
3257;SDS011;1641;51.306;12.384;2022-08-01T08:06:20;4.50;;;2.33;;
3257;SDS011;1641;51.306;12.384;2022-08-01T08:08:46;3.22;;;2.20;;
3257;SDS011;1641;51.306;12.384;2022-08-01T08:11:12;1.40;;;1.15;;
3257;SDS011;1641;51.306;12.384;2022-08-01T08:13:37;2.45;;;1.40;;
3257;SDS011;1641;51.306;12.384;2022-08-01T08:16:02;3.85;;;2.42;;
3257;SDS011;1641;51.306;12.384;2022-08-01T08:18:28;2.58;;;1.30;;
3257;SDS011;1641;51.306;12.384;2022-08-01T08:20:53;1.67;;;1.15;;
3257;SDS011;1641;51.306;12.384;2022-08-01T08:23:18;1.58;;;1.40;;
3257;SDS011;1641;51.306;12.384;2022-08-01T08:26:02;1.95;;;1.30;;
3257;SDS011;1641;51.306;12.384;2022-08-01T08:28:27;1.07;;;0.97;;
3257;SDS011;1641;51.306;12.384;2022-08-01T08:30:53;2.20;;;1.00;;
3257;SDS011;1641;51.306;12.384;2022-08-01T08:33:19;1.20;;;0.98;;
3257;SDS011;1641;51.306;12.384;2022-08-01T08:35:45;1.20;;;1.10;;
3257;SDS011;1641;51.306;12.384;2022-08-01T08:38:10;1.30;;;1.20;;
3257;SDS011;1641;51.306;12.384;2022-08-01T08:40:36;2.22;;;0.93;;
3257;SDS011;1641;51.306;12.384;2022-08-01T08:43:03;3.22;;;1.20;;
3257;SDS011;1641;51.306;12.384;2022-08-01T08:45:30;2.10;;;0.82;;
3257;SDS011;1641;51.306;12.384;2022-08-01T08:47:56;1.10;;;1.00;;
3257;SDS011;1641;51.306;12.384;2022-08-01T08:50:22;3.63;;;1.30;;
3257;SDS011;1641;51.306;12.384;2022-08-01T08:52:48;3.75;;;1.00;;
3257;SDS011;1641;51.306;12.384;2022-08-01T08:55:21;11.52;;;7.97;;
3257;SDS011;1641;51.306;12.384;2022-08-01T08:57:47;2.50;;;1.30;;
3257;SDS011;1641;51.306;12.384;2022-08-01T09:00:14;3.53;;;2.10;;
3257;SDS011;1641;51.306;12.384;2022-08-01T09:02:45;1.13;;;1.02;;
3257;SDS011;1641;51.306;12.384;2022-08-01T09:05:17;2.30;;;1.60;;
3257;SDS011;1641;51.306;12.384;2022-08-01T09:07:43;2.30;;;1.83;;
3257;SDS011;1641;51.306;12.384;2022-08-01T09:10:09;4.63;;;3.00;;
3257;SDS011;1641;51.306;12.384;2022-08-01T09:12:34;4.82;;;3.20;;
3257;SDS011;1641;51.306;12.384;2022-08-01T09:15:07;1.67;;;1.58;;
3257;SDS011;1641;51.306;12.384;2022-08-01T09:17:39;3.20;;;1.45;;
3257;SDS011;1641;51.306;12.384;2022-08-01T09:20:05;3.50;;;2.08;;
3257;SDS011;1641;51.306;12.384;2022-08-01T09:22:32;3.13;;;1.20;;
3257;SDS011;1641;51.306;12.384;2022-08-01T09:25:14;1.52;;;1.10;;
3257;SDS011;1641;51.306;12.384;2022-08-01T09:27:39;4.45;;;2.10;;
3257;SDS011;1641;51.306;12.384;2022-08-01T09:32:58;1.38;;;1.20;;
3257;SDS011;1641;51.306;12.384;2022-08-01T09:35:31;4.85;;;2.30;;
3257;SDS011;1641;51.306;12.384;2022-08-01T09:38:12;1.55;;;1.15;;
3257;SDS011;1641;51.306;12.384;2022-08-01T09:40:48;5.70;;;0.95;;
3257;SDS011;1641;51.306;12.384;2022-08-01T09:43:22;1.55;;;1.08;;
3257;SDS011;1641;51.306;12.384;2022-08-01T09:45:50;0.90;;;0.70;;
3257;SDS011;1641;51.306;12.384;2022-08-01T09:48:15;1.85;;;1.10;;
3257;SDS011;1641;51.306;12.384;2022-08-01T09:50:46;1.45;;;0.80;;
3257;SDS011;1641;51.306;12.384;2022-08-01T09:53:12;2.65;;;1.00;;
3257;SDS011;1641;51.306;12.384;2022-08-01T09:55:42;1.10;;;0.50;;
3257;SDS011;1641;51.306;12.384;2022-08-01T09:58:08;2.25;;;0.80;;
3257;SDS011;1641;51.306;12.384;2022-08-01T10:00:39;2.60;;;0.60;;
3257;SDS011;1641;51.306;12.384;2022-08-01T10:05:46;0.40;;;0.40;;
3257;SDS011;1641;51.306;12.384;2022-08-01T10:08:12;1.20;;;0.70;;
3257;SDS011;1641;51.306;12.384;2022-08-01T10:10:38;4.00;;;2.55;;
3257;SDS011;1641;51.306;12.384;2022-08-01T10:13:07;1.38;;;0.80;;
3257;SDS011;1641;51.306;12.384;2022-08-01T10:15:34;0.60;;;0.43;;
3257;SDS011;1641;51.306;12.384;2022-08-01T10:18:01;2.15;;;0.70;;
3257;SDS011;1641;51.306;12.384;2022-08-01T10:20:29;1.63;;;0.82;;
3257;SDS011;1641;51.306;12.384;2022-08-01T10:23:08;0.82;;;0.52;;
3257;SDS011;1641;51.306;12.384;2022-08-01T10:25:37;2.88;;;2.28;;
3257;SDS011;1641;51.306;12.384;2022-08-01T10:28:07;3.10;;;1.08;;
3257;SDS011;1641;51.306;12.384;2022-08-01T10:30:41;0.60;;;0.60;;
3257;SDS011;1641;51.306;12.384;2022-08-01T10:39:17;0.93;;;0.82;;
3257;SDS011;1641;51.306;12.384;2022-08-01T10:41:43;1.67;;;1.02;;
3257;SDS011;1641;51.306;12.384;2022-08-01T10:44:23;0.50;;;0.50;;
3257;SDS011;1641;51.306;12.384;2022-08-01T10:47:10;4.75;;;2.40;;
3257;SDS011;1641;51.306;12.384;2022-08-01T10:53:07;0.82;;;0.80;;
3257;SDS011;1641;51.306;12.384;2022-08-01T10:55:49;0.90;;;0.90;;
3257;SDS011;1641;51.306;12.384;2022-08-01T10:58:36;4.50;;;2.10;;
3257;SDS011;1641;51.306;12.384;2022-08-01T11:01:20;2.88;;;1.63;;
3257;SDS011;1641;51.306;12.384;2022-08-01T11:10:02;7.45;;;5.22;;
3257;SDS011;1641;51.306;12.384;2022-08-01T11:12:38;9.68;;;6.75;;
3257;SDS011;1641;51.306;12.384;2022-08-01T11:23:29;6.75;;;5.28;;
3257;SDS011;1641;51.306;12.384;2022-08-01T11:26:18;3.70;;;2.95;;
3257;SDS011;1641;51.306;12.384;2022-08-01T11:29:30;5.18;;;3.80;;
3257;SDS011;1641;51.306;12.384;2022-08-01T11:32:27;2.47;;;2.25;;
3257;SDS011;1641;51.306;12.384;2022-08-01T11:34:53;1.10;;;1.10;;
3257;SDS011;1641;51.306;12.384;2022-08-01T11:37:28;0.93;;;0.93;;
3257;SDS011;1641;51.306;12.384;2022-08-01T11:42:42;6.88;;;4.95;;
3257;SDS011;1641;51.306;12.384;2022-08-01T11:45:07;11.05;;;8.07;;
3257;SDS011;1641;51.306;12.384;2022-08-01T11:47:47;3.03;;;2.67;;
3257;SDS011;1641;51.306;12.384;2022-08-01T11:50:30;3.05;;;2.28;;
3257;SDS011;1641;51.306;12.384;2022-08-01T11:53:02;5.35;;;4.28;;
3257;SDS011;1641;51.306;12.384;2022-08-01T11:55:47;2.50;;;1.88;;
3257;SDS011;1641;51.306;12.384;2022-08-01T11:58:21;1.10;;;1.00;;
3257;SDS011;1641;51.306;12.384;2022-08-01T12:00:51;1.80;;;1.67;;
3257;SDS011;1641;51.306;12.384;2022-08-01T12:03:22;1.15;;;1.00;;
3257;SDS011;1641;51.306;12.384;2022-08-01T12:05:52;1.00;;;0.93;;
3257;SDS011;1641;51.306;12.384;2022-08-01T12:08:28;4.63;;;2.33;;
3257;SDS011;1641;51.306;12.384;2022-08-01T12:11:02;2.03;;;1.92;;
3257;SDS011;1641;51.306;12.384;2022-08-01T12:16:25;1.90;;;1.70;;
3257;SDS011;1641;51.306;12.384;2022-08-01T12:18:51;2.00;;;1.88;;
3257;SDS011;1641;51.306;12.384;2022-08-01T12:21:16;2.10;;;1.90;;
3257;SDS011;1641;51.306;12.384;2022-08-01T12:23:44;2.27;;;2.07;;
3257;SDS011;1641;51.306;12.384;2022-08-01T12:26:10;1.80;;;1.70;;
3257;SDS011;1641;51.306;12.384;2022-08-01T12:28:39;5.82;;;1.83;;
3257;SDS011;1641;51.306;12.384;2022-08-01T12:31:07;1.40;;;1.30;;
3257;SDS011;1641;51.306;12.384;2022-08-01T12:33:33;2.03;;;1.90;;
3257;SDS011;1641;51.306;12.384;2022-08-01T12:36:00;1.80;;;1.70;;
3257;SDS011;1641;51.306;12.384;2022-08-01T12:38:29;1.90;;;1.60;;
3257;SDS011;1641;51.306;12.384;2022-08-01T12:40:57;1.40;;;1.30;;
3257;SDS011;1641;51.306;12.384;2022-08-01T12:43:25;1.60;;;1.50;;
3257;SDS011;1641;51.306;12.384;2022-08-01T12:45:50;2.10;;;1.90;;
3257;SDS011;1641;51.306;12.384;2022-08-01T12:48:17;1.80;;;1.70;;
3257;SDS011;1641;51.306;12.384;2022-08-01T12:50:44;1.42;;;1.35;;
3257;SDS011;1641;51.306;12.384;2022-08-01T12:53:11;2.33;;;1.40;;
3257;SDS011;1641;51.306;12.384;2022-08-01T12:58:37;1.20;;;1.10;;
3257;SDS011;1641;51.306;12.384;2022-08-01T13:01:12;0.73;;;0.73;;
3257;SDS011;1641;51.306;12.384;2022-08-01T13:03:40;1.60;;;1.00;;
3257;SDS011;1641;51.306;12.384;2022-08-01T13:06:09;1.30;;;1.17;;
3257;SDS011;1641;51.306;12.384;2022-08-01T13:08:42;2.17;;;1.20;;
3257;SDS011;1641;51.306;12.384;2022-08-01T13:11:13;1.05;;;1.05;;
3257;SDS011;1641;51.306;12.384;2022-08-01T13:13:51;1.92;;;1.10;;
3257;SDS011;1641;51.306;12.384;2022-08-01T13:18:53;0.80;;;0.80;;
3257;SDS011;1641;51.306;12.384;2022-08-01T13:21:20;0.70;;;0.70;;
3257;SDS011;1641;51.306;12.384;2022-08-01T13:24:09;0.85;;;0.85;;
3257;SDS011;1641;51.306;12.384;2022-08-01T13:26:47;2.78;;;0.88;;
3257;SDS011;1641;51.306;12.384;2022-08-01T13:29:21;1.45;;;1.05;;
3257;SDS011;1641;51.306;12.384;2022-08-01T13:31:53;1.25;;;1.15;;
3257;SDS011;1641;51.306;12.384;2022-08-01T13:34:18;1.38;;;1.33;;
3257;SDS011;1641;51.306;12.384;2022-08-01T13:36:54;2.83;;;1.63;;
3257;SDS011;1641;51.306;12.384;2022-08-01T13:39:22;1.67;;;1.58;;
3257;SDS011;1641;51.306;12.384;2022-08-01T13:42:26;2.80;;;2.40;;
3257;SDS011;1641;51.306;12.384;2022-08-01T13:44:54;2.40;;;1.65;;
3257;SDS011;1641;51.306;12.384;2022-08-01T13:47:22;2.33;;;2.13;;
3257;SDS011;1641;51.306;12.384;2022-08-01T13:49:47;1.08;;;1.08;;
3257;SDS011;1641;51.306;12.384;2022-08-01T13:52:13;1.97;;;0.93;;
3257;SDS011;1641;51.306;12.384;2022-08-01T13:54:40;7.82;;;4.88;;
3257;SDS011;1641;51.306;12.384;2022-08-01T13:57:05;1.75;;;1.35;;
3257;SDS011;1641;51.306;12.384;2022-08-01T13:59:31;5.32;;;2.95;;
3257;SDS011;1641;51.306;12.384;2022-08-01T14:01:56;3.30;;;1.77;;
3257;SDS011;1641;51.306;12.384;2022-08-01T14:04:21;1.20;;;1.10;;
3257;SDS011;1641;51.306;12.384;2022-08-01T14:06:47;2.17;;;0.82;;
3257;SDS011;1641;51.306;12.384;2022-08-01T14:09:12;1.40;;;1.30;;
3257;SDS011;1641;51.306;12.384;2022-08-01T14:11:37;2.47;;;1.30;;
3257;SDS011;1641;51.306;12.384;2022-08-01T14:14:06;2.17;;;1.17;;
3257;SDS011;1641;51.306;12.384;2022-08-01T14:16:34;1.00;;;1.00;;
3257;SDS011;1641;51.306;12.384;2022-08-01T14:18:59;0.90;;;0.90;;
3257;SDS011;1641;51.306;12.384;2022-08-01T14:21:25;3.00;;;1.40;;
3257;SDS011;1641;51.306;12.384;2022-08-01T14:23:51;3.38;;;1.40;;
3257;SDS011;1641;51.306;12.384;2022-08-01T14:26:19;1.35;;;1.25;;
3257;SDS011;1641;51.306;12.384;2022-08-01T14:28:44;2.65;;;1.00;;
3257;SDS011;1641;51.306;12.384;2022-08-01T14:31:12;1.55;;;1.40;;
3257;SDS011;1641;51.306;12.384;2022-08-01T14:33:37;4.18;;;1.00;;
3257;SDS011;1641;51.306;12.384;2022-08-01T14:36:03;2.55;;;1.00;;
3257;SDS011;1641;51.306;12.384;2022-08-01T14:38:28;1.00;;;1.00;;
3257;SDS011;1641;51.306;12.384;2022-08-01T14:40:54;2.00;;;1.00;;
3257;SDS011;1641;51.306;12.384;2022-08-01T14:43:19;1.23;;;1.13;;
3257;SDS011;1641;51.306;12.384;2022-08-01T14:45:46;0.80;;;0.80;;
3257;SDS011;1641;51.306;12.384;2022-08-01T14:48:18;1.25;;;1.15;;
3257;SDS011;1641;51.306;12.384;2022-08-01T14:50:44;2.03;;;0.95;;
3257;SDS011;1641;51.306;12.384;2022-08-01T14:53:09;1.25;;;1.13;;
3257;SDS011;1641;51.306;12.384;2022-08-01T14:55:34;1.10;;;1.10;;
3257;SDS011;1641;51.306;12.384;2022-08-01T14:58:00;1.40;;;1.30;;
3257;SDS011;1641;51.306;12.384;2022-08-01T15:00:25;0.93;;;0.93;;
3257;SDS011;1641;51.306;12.384;2022-08-01T15:02:50;1.42;;;1.10;;
3257;SDS011;1641;51.306;12.384;2022-08-01T15:05:15;2.30;;;1.30;;
3257;SDS011;1641;51.306;12.384;2022-08-01T15:07:41;1.55;;;1.08;;
3257;SDS011;1641;51.306;12.384;2022-08-01T15:10:06;0.88;;;0.88;;
3257;SDS011;1641;51.306;12.384;2022-08-01T15:12:32;1.10;;;0.80;;
3257;SDS011;1641;51.306;12.384;2022-08-01T15:14:58;1.00;;;1.00;;
3257;SDS011;1641;51.306;12.384;2022-08-01T15:17:25;1.27;;;1.17;;
3257;SDS011;1641;51.306;12.384;2022-08-01T15:19:56;1.65;;;1.55;;
3257;SDS011;1641;51.306;12.384;2022-08-01T15:22:23;1.63;;;1.52;;
3257;SDS011;1641;51.306;12.384;2022-08-01T15:24:50;3.25;;;1.60;;
3257;SDS011;1641;51.306;12.384;2022-08-01T15:27:16;1.65;;;1.55;;
3257;SDS011;1641;51.306;12.384;2022-08-01T15:29:42;1.85;;;1.65;;
3257;SDS011;1641;51.306;12.384;2022-08-01T15:32:07;1.53;;;1.43;;
3257;SDS011;1641;51.306;12.384;2022-08-01T15:34:34;5.13;;;1.67;;
3257;SDS011;1641;51.306;12.384;2022-08-01T15:37:01;4.65;;;2.42;;
3257;SDS011;1641;51.306;12.384;2022-08-01T15:39:27;7.75;;;2.03;;
3257;SDS011;1641;51.306;12.384;2022-08-01T15:41:52;2.30;;;2.20;;
3257;SDS011;1641;51.306;12.384;2022-08-01T15:44:17;1.88;;;1.77;;
3257;SDS011;1641;51.306;12.384;2022-08-01T15:46:45;2.25;;;2.10;;
3257;SDS011;1641;51.306;12.384;2022-08-01T15:49:11;2.47;;;2.28;;
3257;SDS011;1641;51.306;12.384;2022-08-01T15:51:37;2.45;;;2.25;;
3257;SDS011;1641;51.306;12.384;2022-08-01T15:54:02;2.13;;;2.00;;